sensor_id;sensor_type;location;lat;lon;timestamp;P1;durP1;ratioP1;P2;durP2;ratioP2
62332;SDS011;48624;49.812;8.562;2023-06-10T00:00:41;350.77;;;338.48;;
62332;SDS011;48624;49.812;8.562;2023-06-10T00:03:07;350.02;;;337.40;;
62332;SDS011;48624;49.812;8.562;2023-06-10T00:05:33;357.52;;;344.02;;
62332;SDS011;48624;49.812;8.562;2023-06-10T00:07:59;354.17;;;341.60;;
62332;SDS011;48624;49.812;8.562;2023-06-10T00:10:26;358.58;;;345.25;;
62332;SDS011;48624;49.812;8.562;2023-06-10T00:12:52;363.55;;;350.33;;
62332;SDS011;48624;49.812;8.562;2023-06-10T00:15:17;388.38;;;374.00;;
62332;SDS011;48624;49.812;8.562;2023-06-10T00:17:42;425.00;;;408.48;;
62332;SDS011;48624;49.812;8.562;2023-06-10T00:20:08;477.63;;;458.63;;
62332;SDS011;48624;49.812;8.562;2023-06-10T00:22:36;494.58;;;474.45;;
62332;SDS011;48624;49.812;8.562;2023-06-10T00:25:02;409.70;;;394.33;;
62332;SDS011;48624;49.812;8.562;2023-06-10T00:27:28;532.30;;;509.95;;
62332;SDS011;48624;49.812;8.562;2023-06-10T00:29:59;505.95;;;485.40;;
62332;SDS011;48624;49.812;8.562;2023-06-10T00:32:25;493.98;;;473.63;;
62332;SDS011;48624;49.812;8.562;2023-06-10T00:34:51;566.10;;;542.08;;
62332;SDS011;48624;49.812;8.562;2023-06-10T00:37:16;565.35;;;541.83;;
62332;SDS011;48624;49.812;8.562;2023-06-10T00:39:41;561.10;;;537.35;;
62332;SDS011;48624;49.812;8.562;2023-06-10T00:42:07;548.35;;;525.85;;
62332;SDS011;48624;49.812;8.562;2023-06-10T00:44:32;538.00;;;515.97;;
62332;SDS011;48624;49.812;8.562;2023-06-10T00:46:58;525.88;;;504.80;;
62332;SDS011;48624;49.812;8.562;2023-06-10T00:49:23;535.13;;;513.17;;
62332;SDS011;48624;49.812;8.562;2023-06-10T00:51:49;530.13;;;509.00;;
62332;SDS011;48624;49.812;8.562;2023-06-10T00:54:16;492.17;;;473.00;;
62332;SDS011;48624;49.812;8.562;2023-06-10T00:56:42;486.70;;;467.63;;
62332;SDS011;48624;49.812;8.562;2023-06-10T00:59:08;484.67;;;465.90;;
62332;SDS011;48624;49.812;8.562;2023-06-10T01:01:33;465.98;;;448.25;;
62332;SDS011;48624;49.812;8.562;2023-06-10T01:03:59;459.67;;;441.95;;
62332;SDS011;48624;49.812;8.562;2023-06-10T01:09:21;465.65;;;447.65;;
62332;SDS011;48624;49.812;8.562;2023-06-10T01:14:34;460.67;;;443.13;;
62332;SDS011;48624;49.812;8.562;2023-06-10T01:17:00;450.90;;;433.65;;
62332;SDS011;48624;49.812;8.562;2023-06-10T01:19:26;457.90;;;440.70;;
62332;SDS011;48624;49.812;8.562;2023-06-10T01:21:53;449.48;;;432.63;;
62332;SDS011;48624;49.812;8.562;2023-06-10T01:24:20;435.92;;;419.70;;
62332;SDS011;48624;49.812;8.562;2023-06-10T01:26:47;460.33;;;442.60;;
62332;SDS011;48624;49.812;8.562;2023-06-10T01:29:17;450.08;;;432.95;;
62332;SDS011;48624;49.812;8.562;2023-06-10T01:31:51;447.80;;;430.63;;
62332;SDS011;48624;49.812;8.562;2023-06-10T01:34:25;444.58;;;427.73;;
62332;SDS011;48624;49.812;8.562;2023-06-10T01:36:52;464.85;;;446.98;;
62332;SDS011;48624;49.812;8.562;2023-06-10T01:39:20;459.35;;;442.13;;
62332;SDS011;48624;49.812;8.562;2023-06-10T01:41:49;447.25;;;430.58;;
62332;SDS011;48624;49.812;8.562;2023-06-10T01:44:19;449.33;;;432.27;;
62332;SDS011;48624;49.812;8.562;2023-06-10T01:46:46;462.73;;;444.67;;
62332;SDS011;48624;49.812;8.562;2023-06-10T01:49:11;485.98;;;467.08;;
62332;SDS011;48624;49.812;8.562;2023-06-10T01:51:36;483.75;;;464.50;;
62332;SDS011;48624;49.812;8.562;2023-06-10T01:54:02;509.80;;;489.60;;
62332;SDS011;48624;49.812;8.562;2023-06-10T01:56:27;493.83;;;474.17;;
62332;SDS011;48624;49.812;8.562;2023-06-10T01:58:52;508.77;;;487.50;;
62332;SDS011;48624;49.812;8.562;2023-06-10T02:01:20;521.22;;;499.65;;
62332;SDS011;48624;49.812;8.562;2023-06-10T02:03:46;513.47;;;492.08;;
62332;SDS011;48624;49.812;8.562;2023-06-10T02:06:11;522.20;;;500.95;;
62332;SDS011;48624;49.812;8.562;2023-06-10T02:08:36;556.15;;;532.38;;
62332;SDS011;48624;49.812;8.562;2023-06-10T02:11:01;544.33;;;521.53;;
62332;SDS011;48624;49.812;8.562;2023-06-10T02:13:27;547.05;;;523.70;;
62332;SDS011;48624;49.812;8.562;2023-06-10T02:15:52;551.28;;;528.15;;
62332;SDS011;48624;49.812;8.562;2023-06-10T02:18:19;532.97;;;510.85;;
62332;SDS011;48624;49.812;8.562;2023-06-10T02:20:45;557.17;;;533.55;;
62332;SDS011;48624;49.812;8.562;2023-06-10T02:23:11;572.67;;;548.17;;
62332;SDS011;48624;49.812;8.562;2023-06-10T02:25:36;564.53;;;540.63;;
62332;SDS011;48624;49.812;8.562;2023-06-10T02:28:01;564.42;;;540.35;;
62332;SDS011;48624;49.812;8.562;2023-06-10T02:30:28;591.90;;;566.15;;
62332;SDS011;48624;49.812;8.562;2023-06-10T02:32:53;599.63;;;573.42;;
62332;SDS011;48624;49.812;8.562;2023-06-10T02:35:21;592.28;;;565.83;;
62332;SDS011;48624;49.812;8.562;2023-06-10T02:37:47;597.55;;;571.90;;
62332;SDS011;48624;49.812;8.562;2023-06-10T02:40:12;590.22;;;564.60;;
62332;SDS011;48624;49.812;8.562;2023-06-10T02:42:38;588.58;;;563.22;;
62332;SDS011;48624;49.812;8.562;2023-06-10T02:45:03;589.58;;;564.60;;
62332;SDS011;48624;49.812;8.562;2023-06-10T02:47:29;581.10;;;556.30;;
62332;SDS011;48624;49.812;8.562;2023-06-10T02:49:55;574.30;;;550.15;;
62332;SDS011;48624;49.812;8.562;2023-06-10T02:52:20;578.45;;;553.95;;
62332;SDS011;48624;49.812;8.562;2023-06-10T02:54:45;562.13;;;538.47;;
62332;SDS011;48624;49.812;8.562;2023-06-10T02:57:11;564.55;;;540.63;;
62332;SDS011;48624;49.812;8.562;2023-06-10T02:59:36;560.17;;;537.03;;
62332;SDS011;48624;49.812;8.562;2023-06-10T03:02:01;547.38;;;524.47;;
62332;SDS011;48624;49.812;8.562;2023-06-10T03:04:27;542.65;;;520.60;;
62332;SDS011;48624;49.812;8.562;2023-06-10T03:06:54;527.72;;;505.77;;
62332;SDS011;48624;49.812;8.562;2023-06-10T03:09:19;547.70;;;525.17;;
62332;SDS011;48624;49.812;8.562;2023-06-10T03:11:44;538.50;;;516.47;;
62332;SDS011;48624;49.812;8.562;2023-06-10T03:14:10;541.50;;;518.92;;
62332;SDS011;48624;49.812;8.562;2023-06-10T03:16:35;551.03;;;528.22;;
62332;SDS011;48624;49.812;8.562;2023-06-10T03:19:00;542.80;;;520.65;;
62332;SDS011;48624;49.812;8.562;2023-06-10T03:21:26;539.78;;;517.67;;
62332;SDS011;48624;49.812;8.562;2023-06-10T03:23:51;545.30;;;522.65;;
62332;SDS011;48624;49.812;8.562;2023-06-10T03:26:17;540.80;;;518.17;;
62332;SDS011;48624;49.812;8.562;2023-06-10T03:28:42;538.67;;;516.70;;
62332;SDS011;48624;49.812;8.562;2023-06-10T03:31:07;558.65;;;535.22;;
62332;SDS011;48624;49.812;8.562;2023-06-10T03:33:33;547.83;;;525.50;;
62332;SDS011;48624;49.812;8.562;2023-06-10T03:35:58;553.78;;;531.03;;
62332;SDS011;48624;49.812;8.562;2023-06-10T03:38:24;549.63;;;526.92;;
62332;SDS011;48624;49.812;8.562;2023-06-10T03:40:49;536.65;;;514.95;;
62332;SDS011;48624;49.812;8.562;2023-06-10T03:43:15;538.38;;;516.38;;
62332;SDS011;48624;49.812;8.562;2023-06-10T03:45:40;521.70;;;500.70;;
62332;SDS011;48624;49.812;8.562;2023-06-10T03:48:06;519.33;;;498.63;;
62332;SDS011;48624;49.812;8.562;2023-06-10T03:50:33;514.90;;;494.45;;
62332;SDS011;48624;49.812;8.562;2023-06-10T03:52:59;509.58;;;489.00;;
62332;SDS011;48624;49.812;8.562;2023-06-10T03:55:24;504.38;;;484.17;;
62332;SDS011;48624;49.812;8.562;2023-06-10T03:57:49;501.15;;;481.30;;
62332;SDS011;48624;49.812;8.562;2023-06-10T04:00:15;487.15;;;468.20;;
62332;SDS011;48624;49.812;8.562;2023-06-10T04:02:42;498.27;;;478.75;;
62332;SDS011;48624;49.812;8.562;2023-06-10T04:05:17;474.00;;;455.50;;
62332;SDS011;48624;49.812;8.562;2023-06-10T04:07:43;491.58;;;472.10;;
62332;SDS011;48624;49.812;8.562;2023-06-10T04:10:09;493.15;;;473.58;;
62332;SDS011;48624;49.812;8.562;2023-06-10T04:12:35;498.10;;;478.23;;
62332;SDS011;48624;49.812;8.562;2023-06-10T04:15:01;502.77;;;482.90;;
62332;SDS011;48624;49.812;8.562;2023-06-10T04:17:27;493.50;;;473.42;;
62332;SDS011;48624;49.812;8.562;2023-06-10T04:19:52;486.30;;;467.42;;
62332;SDS011;48624;49.812;8.562;2023-06-10T04:22:21;505.25;;;485.38;;
62332;SDS011;48624;49.812;8.562;2023-06-10T04:24:46;514.95;;;494.25;;
62332;SDS011;48624;49.812;8.562;2023-06-10T04:27:11;517.15;;;496.40;;
62332;SDS011;48624;49.812;8.562;2023-06-10T04:29:37;540.60;;;518.65;;
62332;SDS011;48624;49.812;8.562;2023-06-10T04:32:02;533.90;;;511.95;;
62332;SDS011;48624;49.812;8.562;2023-06-10T04:34:28;534.95;;;513.10;;
62332;SDS011;48624;49.812;8.562;2023-06-10T04:36:53;531.17;;;509.42;;
62332;SDS011;48624;49.812;8.562;2023-06-10T04:39:19;547.63;;;524.72;;
62332;SDS011;48624;49.812;8.562;2023-06-10T04:41:45;549.65;;;527.40;;
62332;SDS011;48624;49.812;8.562;2023-06-10T04:44:10;538.80;;;516.88;;
62332;SDS011;48624;49.812;8.562;2023-06-10T04:46:36;531.35;;;509.65;;
62332;SDS011;48624;49.812;8.562;2023-06-10T04:49:01;523.08;;;502.00;;
62332;SDS011;48624;49.812;8.562;2023-06-10T04:51:27;537.00;;;514.75;;
62332;SDS011;48624;49.812;8.562;2023-06-10T04:53:53;540.05;;;517.97;;
62332;SDS011;48624;49.812;8.562;2023-06-10T04:56:18;552.15;;;529.53;;
62332;SDS011;48624;49.812;8.562;2023-06-10T04:58:44;519.92;;;498.65;;
62332;SDS011;48624;49.812;8.562;2023-06-10T05:01:09;525.72;;;504.42;;
62332;SDS011;48624;49.812;8.562;2023-06-10T05:03:34;525.80;;;504.45;;
62332;SDS011;48624;49.812;8.562;2023-06-10T05:06:00;547.20;;;524.45;;
62332;SDS011;48624;49.812;8.562;2023-06-10T05:08:25;540.30;;;518.35;;
62332;SDS011;48624;49.812;8.562;2023-06-10T05:10:50;535.90;;;513.47;;
62332;SDS011;48624;49.812;8.562;2023-06-10T05:13:16;543.03;;;520.60;;
62332;SDS011;48624;49.812;8.562;2023-06-10T05:15:42;556.10;;;533.20;;
62332;SDS011;48624;49.812;8.562;2023-06-10T05:18:09;556.55;;;533.30;;
62332;SDS011;48624;49.812;8.562;2023-06-10T05:20:35;545.45;;;522.97;;
62332;SDS011;48624;49.812;8.562;2023-06-10T05:23:00;551.08;;;528.15;;
62332;SDS011;48624;49.812;8.562;2023-06-10T05:25:25;551.30;;;528.15;;
62332;SDS011;48624;49.812;8.562;2023-06-10T05:27:52;565.13;;;541.63;;
62332;SDS011;48624;49.812;8.562;2023-06-10T05:30:18;555.22;;;531.95;;
62332;SDS011;48624;49.812;8.562;2023-06-10T05:32:43;563.97;;;540.22;;
62332;SDS011;48624;49.812;8.562;2023-06-10T05:35:09;572.08;;;548.13;;
62332;SDS011;48624;49.812;8.562;2023-06-10T05:37:34;568.95;;;544.67;;
62332;SDS011;48624;49.812;8.562;2023-06-10T05:40:01;570.25;;;546.28;;
62332;SDS011;48624;49.812;8.562;2023-06-10T05:42:27;572.67;;;548.25;;
62332;SDS011;48624;49.812;8.562;2023-06-10T05:44:55;543.50;;;520.83;;
62332;SDS011;48624;49.812;8.562;2023-06-10T05:47:21;531.28;;;509.33;;
62332;SDS011;48624;49.812;8.562;2023-06-10T05:49:46;518.33;;;497.35;;
62332;SDS011;48624;49.812;8.562;2023-06-10T05:52:13;491.52;;;472.20;;
62332;SDS011;48624;49.812;8.562;2023-06-10T05:54:38;494.75;;;475.05;;
62332;SDS011;48624;49.812;8.562;2023-06-10T05:57:04;450.38;;;433.30;;
62332;SDS011;48624;49.812;8.562;2023-06-10T05:59:30;424.52;;;408.65;;
62332;SDS011;48624;49.812;8.562;2023-06-10T06:01:55;491.25;;;471.88;;
62332;SDS011;48624;49.812;8.562;2023-06-10T06:04:21;494.27;;;474.60;;
62332;SDS011;48624;49.812;8.562;2023-06-10T06:06:46;501.83;;;482.05;;
62332;SDS011;48624;49.812;8.562;2023-06-10T06:09:11;515.05;;;494.77;;
62332;SDS011;48624;49.812;8.562;2023-06-10T06:11:37;518.13;;;497.25;;
62332;SDS011;48624;49.812;8.562;2023-06-10T06:14:03;483.58;;;464.75;;
62332;SDS011;48624;49.812;8.562;2023-06-10T06:16:28;479.55;;;461.05;;
62332;SDS011;48624;49.812;8.562;2023-06-10T06:18:53;380.08;;;366.00;;
62332;SDS011;48624;49.812;8.562;2023-06-10T06:21:19;440.02;;;423.27;;
62332;SDS011;48624;49.812;8.562;2023-06-10T06:23:44;317.98;;;306.50;;
62332;SDS011;48624;49.812;8.562;2023-06-10T06:26:09;324.83;;;313.02;;
62332;SDS011;48624;49.812;8.562;2023-06-10T06:28:34;319.02;;;307.70;;
62332;SDS011;48624;49.812;8.562;2023-06-10T06:31:00;337.50;;;325.58;;
62332;SDS011;48624;49.812;8.562;2023-06-10T06:33:25;359.38;;;346.20;;
62332;SDS011;48624;49.812;8.562;2023-06-10T06:35:51;328.17;;;316.85;;
62332;SDS011;48624;49.812;8.562;2023-06-10T06:38:16;312.73;;;301.88;;
62332;SDS011;48624;49.812;8.562;2023-06-10T06:40:42;325.85;;;314.25;;
62332;SDS011;48624;49.812;8.562;2023-06-10T06:43:07;313.42;;;302.20;;
62332;SDS011;48624;49.812;8.562;2023-06-10T06:45:32;333.65;;;322.00;;
62332;SDS011;48624;49.812;8.562;2023-06-10T06:47:58;344.75;;;332.60;;
62332;SDS011;48624;49.812;8.562;2023-06-10T06:50:24;335.60;;;323.73;;
62332;SDS011;48624;49.812;8.562;2023-06-10T06:52:49;337.13;;;325.15;;
62332;SDS011;48624;49.812;8.562;2023-06-10T06:55:15;336.92;;;325.05;;
62332;SDS011;48624;49.812;8.562;2023-06-10T06:57:40;236.88;;;228.15;;
62332;SDS011;48624;49.812;8.562;2023-06-10T07:00:05;166.68;;;160.68;;
62332;SDS011;48624;49.812;8.562;2023-06-10T07:02:32;192.40;;;185.50;;
62332;SDS011;48624;49.812;8.562;2023-06-10T07:04:58;236.10;;;227.75;;
62332;SDS011;48624;49.812;8.562;2023-06-10T07:07:23;114.20;;;109.95;;
62332;SDS011;48624;49.812;8.562;2023-06-10T07:09:49;148.82;;;143.23;;
62332;SDS011;48624;49.812;8.562;2023-06-10T07:12:14;168.60;;;162.60;;
62332;SDS011;48624;49.812;8.562;2023-06-10T07:14:40;114.82;;;110.65;;
62332;SDS011;48624;49.812;8.562;2023-06-10T07:17:05;103.07;;;99.20;;
62332;SDS011;48624;49.812;8.562;2023-06-10T07:19:30;115.03;;;110.93;;
62332;SDS011;48624;49.812;8.562;2023-06-10T07:21:55;46.40;;;44.08;;
62332;SDS011;48624;49.812;8.562;2023-06-10T07:24:21;41.00;;;39.28;;
62332;SDS011;48624;49.812;8.562;2023-06-10T07:26:46;69.72;;;66.43;;
62332;SDS011;48624;49.812;8.562;2023-06-10T07:29:11;85.55;;;82.07;;
62332;SDS011;48624;49.812;8.562;2023-06-10T07:31:37;85.30;;;81.85;;
62332;SDS011;48624;49.812;8.562;2023-06-10T07:34:03;21.25;;;20.15;;
62332;SDS011;48624;49.812;8.562;2023-06-10T07:36:28;62.35;;;59.40;;
62332;SDS011;48624;49.812;8.562;2023-06-10T07:38:54;43.83;;;42.00;;
62332;SDS011;48624;49.812;8.562;2023-06-10T07:41:20;30.27;;;28.77;;
62332;SDS011;48624;49.812;8.562;2023-06-10T07:43:47;17.98;;;16.67;;
62332;SDS011;48624;49.812;8.562;2023-06-10T07:46:12;56.25;;;53.97;;
62332;SDS011;48624;49.812;8.562;2023-06-10T07:48:38;15.75;;;14.70;;
62332;SDS011;48624;49.812;8.562;2023-06-10T07:51:03;18.90;;;17.80;;
62332;SDS011;48624;49.812;8.562;2023-06-10T07:53:28;20.60;;;19.52;;
62332;SDS011;48624;49.812;8.562;2023-06-10T07:55:54;7.63;;;6.57;;
62332;SDS011;48624;49.812;8.562;2023-06-10T07:58:19;7.35;;;6.65;;
62332;SDS011;48624;49.812;8.562;2023-06-10T08:00:45;9.68;;;8.73;;
62332;SDS011;48624;49.812;8.562;2023-06-10T08:03:11;8.43;;;7.72;;
62332;SDS011;48624;49.812;8.562;2023-06-10T08:05:36;8.68;;;6.85;;
62332;SDS011;48624;49.812;8.562;2023-06-10T08:08:02;6.45;;;5.85;;
62332;SDS011;48624;49.812;8.562;2023-06-10T08:10:27;7.90;;;6.38;;
62332;SDS011;48624;49.812;8.562;2023-06-10T08:12:52;7.65;;;6.85;;
62332;SDS011;48624;49.812;8.562;2023-06-10T08:15:18;6.78;;;6.18;;
62332;SDS011;48624;49.812;8.562;2023-06-10T08:20:10;7.05;;;6.28;;
62332;SDS011;48624;49.812;8.562;2023-06-10T08:22:36;6.93;;;6.25;;
62332;SDS011;48624;49.812;8.562;2023-06-10T08:25:01;7.97;;;6.63;;
62332;SDS011;48624;49.812;8.562;2023-06-10T08:27:27;6.22;;;5.22;;
62332;SDS011;48624;49.812;8.562;2023-06-10T08:29:52;8.27;;;6.55;;
62332;SDS011;48624;49.812;8.562;2023-06-10T08:32:17;7.10;;;6.40;;
62332;SDS011;48624;49.812;8.562;2023-06-10T08:34:43;7.82;;;5.82;;
62332;SDS011;48624;49.812;8.562;2023-06-10T08:37:08;6.95;;;6.25;;
62332;SDS011;48624;49.812;8.562;2023-06-10T08:39:33;6.13;;;5.53;;
62332;SDS011;48624;49.812;8.562;2023-06-10T08:44:42;6.97;;;5.97;;
62332;SDS011;48624;49.812;8.562;2023-06-10T08:49:45;6.75;;;5.75;;
62332;SDS011;48624;49.812;8.562;2023-06-10T08:52:15;6.22;;;5.63;;
62332;SDS011;48624;49.812;8.562;2023-06-10T08:55:00;7.78;;;6.10;;
62332;SDS011;48624;49.812;8.562;2023-06-10T08:57:29;6.78;;;6.13;;
62332;SDS011;48624;49.812;8.562;2023-06-10T08:59:56;6.60;;;5.82;;
62332;SDS011;48624;49.812;8.562;2023-06-10T09:02:22;8.10;;;6.78;;
62332;SDS011;48624;49.812;8.562;2023-06-10T09:04:49;6.88;;;5.97;;
62332;SDS011;48624;49.812;8.562;2023-06-10T09:07:15;9.25;;;6.93;;
62332;SDS011;48624;49.812;8.562;2023-06-10T09:09:42;6.80;;;5.90;;
62332;SDS011;48624;49.812;8.562;2023-06-10T09:12:09;7.35;;;6.50;;
62332;SDS011;48624;49.812;8.562;2023-06-10T09:14:35;7.70;;;6.03;;
62332;SDS011;48624;49.812;8.562;2023-06-10T09:17:01;6.30;;;5.70;;
62332;SDS011;48624;49.812;8.562;2023-06-10T09:19:27;12.25;;;7.65;;
62332;SDS011;48624;49.812;8.562;2023-06-10T09:21:53;7.25;;;6.30;;
62332;SDS011;48624;49.812;8.562;2023-06-10T09:24:19;7.00;;;6.28;;
62332;SDS011;48624;49.812;8.562;2023-06-10T09:26:47;7.88;;;6.22;;
62332;SDS011;48624;49.812;8.562;2023-06-10T09:29:12;8.50;;;6.80;;
62332;SDS011;48624;49.812;8.562;2023-06-10T09:31:38;6.88;;;6.18;;
62332;SDS011;48624;49.812;8.562;2023-06-10T09:36:40;8.82;;;5.68;;
62332;SDS011;48624;49.812;8.562;2023-06-10T09:39:16;9.43;;;7.45;;
62332;SDS011;48624;49.812;8.562;2023-06-10T09:41:44;7.75;;;7.13;;
62332;SDS011;48624;49.812;8.562;2023-06-10T09:44:18;6.25;;;5.53;;
62332;SDS011;48624;49.812;8.562;2023-06-10T09:46:47;6.20;;;5.55;;
62332;SDS011;48624;49.812;8.562;2023-06-10T09:49:16;7.55;;;6.25;;
62332;SDS011;48624;49.812;8.562;2023-06-10T09:51:48;9.20;;;6.07;;
62332;SDS011;48624;49.812;8.562;2023-06-10T09:54:15;5.93;;;5.43;;
62332;SDS011;48624;49.812;8.562;2023-06-10T09:56:41;7.38;;;6.63;;
62332;SDS011;48624;49.812;8.562;2023-06-10T09:59:07;10.75;;;7.65;;
62332;SDS011;48624;49.812;8.562;2023-06-10T10:01:33;10.57;;;9.85;;
62332;SDS011;48624;49.812;8.562;2023-06-10T10:03:59;9.15;;;8.50;;
62332;SDS011;48624;49.812;8.562;2023-06-10T10:06:25;7.70;;;7.00;;
62332;SDS011;48624;49.812;8.562;2023-06-10T10:08:51;16.02;;;15.02;;
62332;SDS011;48624;49.812;8.562;2023-06-10T10:11:17;60.08;;;57.58;;
62332;SDS011;48624;49.812;8.562;2023-06-10T10:13:45;85.50;;;82.40;;
62332;SDS011;48624;49.812;8.562;2023-06-10T10:16:14;89.65;;;86.35;;
62332;SDS011;48624;49.812;8.562;2023-06-10T10:18:43;124.57;;;120.10;;
62332;SDS011;48624;49.812;8.562;2023-06-10T10:21:13;90.75;;;87.45;;
62332;SDS011;48624;49.812;8.562;2023-06-10T10:23:44;85.85;;;82.75;;
62332;SDS011;48624;49.812;8.562;2023-06-10T10:26:21;68.30;;;65.60;;
62332;SDS011;48624;49.812;8.562;2023-06-10T10:28:48;104.40;;;100.57;;
62332;SDS011;48624;49.812;8.562;2023-06-10T10:31:21;92.53;;;89.20;;
62332;SDS011;48624;49.812;8.562;2023-06-10T10:33:58;116.80;;;112.43;;
62332;SDS011;48624;49.812;8.562;2023-06-10T10:36:24;108.03;;;104.18;;
62332;SDS011;48624;49.812;8.562;2023-06-10T10:38:50;145.35;;;140.02;;
62332;SDS011;48624;49.812;8.562;2023-06-10T10:41:16;212.68;;;205.07;;
62332;SDS011;48624;49.812;8.562;2023-06-10T10:43:44;292.20;;;281.58;;
62332;SDS011;48624;49.812;8.562;2023-06-10T10:46:14;266.23;;;256.65;;
62332;SDS011;48624;49.812;8.562;2023-06-10T10:48:42;345.52;;;332.73;;
62332;SDS011;48624;49.812;8.562;2023-06-10T10:51:09;311.23;;;299.45;;
62332;SDS011;48624;49.812;8.562;2023-06-10T10:53:38;420.33;;;403.60;;
62332;SDS011;48624;49.812;8.562;2023-06-10T10:58:37;466.88;;;447.40;;
62332;SDS011;48624;49.812;8.562;2023-06-10T11:01:10;517.70;;;494.80;;
62332;SDS011;48624;49.812;8.562;2023-06-10T11:03:45;617.10;;;586.95;;
62332;SDS011;48624;49.812;8.562;2023-06-10T11:06:15;585.63;;;558.10;;
62332;SDS011;48624;49.812;8.562;2023-06-10T11:13:43;574.30;;;547.75;;
62332;SDS011;48624;49.812;8.562;2023-06-10T11:16:23;552.00;;;527.42;;
62332;SDS011;48624;49.812;8.562;2023-06-10T11:18:53;520.95;;;498.35;;
62332;SDS011;48624;49.812;8.562;2023-06-10T11:21:19;596.10;;;567.38;;
62332;SDS011;48624;49.812;8.562;2023-06-10T11:23:45;533.65;;;510.33;;
62332;SDS011;48624;49.812;8.562;2023-06-10T11:31:24;508.40;;;486.83;;
62332;SDS011;48624;49.812;8.562;2023-06-10T11:33:54;423.48;;;407.00;;
62332;SDS011;48624;49.812;8.562;2023-06-10T11:36:20;355.42;;;342.15;;
62332;SDS011;48624;49.812;8.562;2023-06-10T11:38:46;391.92;;;376.77;;
62332;SDS011;48624;49.812;8.562;2023-06-10T11:41:13;484.15;;;464.20;;
62332;SDS011;48624;49.812;8.562;2023-06-10T11:43:45;503.45;;;482.00;;
62332;SDS011;48624;49.812;8.562;2023-06-10T11:46:11;526.35;;;503.42;;
62332;SDS011;48624;49.812;8.562;2023-06-10T11:48:37;547.30;;;522.53;;
62332;SDS011;48624;49.812;8.562;2023-06-10T11:51:08;536.17;;;512.50;;
62332;SDS011;48624;49.812;8.562;2023-06-10T11:53:34;503.17;;;481.88;;
62332;SDS011;48624;49.812;8.562;2023-06-10T11:55:59;509.73;;;487.95;;
62332;SDS011;48624;49.812;8.562;2023-06-10T11:58:25;535.95;;;513.03;;
62332;SDS011;48624;49.812;8.562;2023-06-10T12:00:54;473.48;;;453.88;;
62332;SDS011;48624;49.812;8.562;2023-06-10T12:03:23;468.50;;;449.15;;
62332;SDS011;48624;49.812;8.562;2023-06-10T12:08:25;561.55;;;535.78;;
62332;SDS011;48624;49.812;8.562;2023-06-10T12:10:52;543.42;;;519.17;;
62332;SDS011;48624;49.812;8.562;2023-06-10T12:13:18;556.47;;;531.40;;
62332;SDS011;48624;49.812;8.562;2023-06-10T12:15:43;540.28;;;516.25;;
62332;SDS011;48624;49.812;8.562;2023-06-10T12:18:18;497.15;;;476.35;;
62332;SDS011;48624;49.812;8.562;2023-06-10T12:20:45;337.17;;;325.00;;
62332;SDS011;48624;49.812;8.562;2023-06-10T12:23:11;359.80;;;346.50;;
62332;SDS011;48624;49.812;8.562;2023-06-10T12:25:37;284.02;;;273.98;;
62332;SDS011;48624;49.812;8.562;2023-06-10T12:28:03;215.13;;;207.68;;
62332;SDS011;48624;49.812;8.562;2023-06-10T12:30:29;176.77;;;170.57;;
62332;SDS011;48624;49.812;8.562;2023-06-10T12:32:54;143.88;;;138.93;;
62332;SDS011;48624;49.812;8.562;2023-06-10T12:35:21;104.00;;;100.47;;
62332;SDS011;48624;49.812;8.562;2023-06-10T12:40:28;189.00;;;182.35;;
62332;SDS011;48624;49.812;8.562;2023-06-10T12:43:01;231.55;;;223.52;;
62332;SDS011;48624;49.812;8.562;2023-06-10T12:45:27;235.75;;;227.50;;
62332;SDS011;48624;49.812;8.562;2023-06-10T12:50:50;420.42;;;404.13;;
62332;SDS011;48624;49.812;8.562;2023-06-10T12:53:17;463.42;;;445.02;;
62332;SDS011;48624;49.812;8.562;2023-06-10T12:55:43;425.73;;;409.55;;
62332;SDS011;48624;49.812;8.562;2023-06-10T12:58:10;462.95;;;444.30;;
62332;SDS011;48624;49.812;8.562;2023-06-10T13:00:35;498.52;;;478.00;;
62332;SDS011;48624;49.812;8.562;2023-06-10T13:03:01;495.70;;;475.15;;
62332;SDS011;48624;49.812;8.562;2023-06-10T13:05:26;522.58;;;500.40;;
62332;SDS011;48624;49.812;8.562;2023-06-10T13:07:52;516.45;;;494.35;;
62332;SDS011;48624;49.812;8.562;2023-06-10T13:10:17;530.03;;;507.25;;
62332;SDS011;48624;49.812;8.562;2023-06-10T13:12:43;508.85;;;487.42;;
62332;SDS011;48624;49.812;8.562;2023-06-10T13:15:09;552.00;;;528.25;;
62332;SDS011;48624;49.812;8.562;2023-06-10T13:17:35;538.50;;;515.38;;
62332;SDS011;48624;49.812;8.562;2023-06-10T13:20:02;506.73;;;485.65;;
62332;SDS011;48624;49.812;8.562;2023-06-10T13:22:29;553.67;;;529.25;;
62332;SDS011;48624;49.812;8.562;2023-06-10T13:24:55;511.58;;;489.75;;
62332;SDS011;48624;49.812;8.562;2023-06-10T13:27:22;454.05;;;435.98;;
62332;SDS011;48624;49.812;8.562;2023-06-10T13:29:47;423.08;;;406.70;;
62332;SDS011;48624;49.812;8.562;2023-06-10T13:32:12;338.35;;;326.17;;
62332;SDS011;48624;49.812;8.562;2023-06-10T13:34:37;370.52;;;356.83;;
62332;SDS011;48624;49.812;8.562;2023-06-10T13:37:03;479.73;;;460.23;;
62332;SDS011;48624;49.812;8.562;2023-06-10T13:39:29;488.08;;;467.77;;
62332;SDS011;48624;49.812;8.562;2023-06-10T13:41:55;472.42;;;453.25;;
62332;SDS011;48624;49.812;8.562;2023-06-10T13:44:20;550.33;;;526.22;;
62332;SDS011;48624;49.812;8.562;2023-06-10T13:46:45;580.00;;;554.03;;
62332;SDS011;48624;49.812;8.562;2023-06-10T13:49:11;555.33;;;531.03;;
62332;SDS011;48624;49.812;8.562;2023-06-10T13:51:36;525.10;;;502.60;;
62332;SDS011;48624;49.812;8.562;2023-06-10T13:54:02;427.63;;;411.30;;
62332;SDS011;48624;49.812;8.562;2023-06-10T13:56:27;412.17;;;396.48;;
62332;SDS011;48624;49.812;8.562;2023-06-10T13:58:53;281.38;;;271.73;;
62332;SDS011;48624;49.812;8.562;2023-06-10T14:01:18;275.42;;;265.95;;
62332;SDS011;48624;49.812;8.562;2023-06-10T14:03:44;212.68;;;205.43;;
62332;SDS011;48624;49.812;8.562;2023-06-10T14:06:09;222.68;;;215.15;;
62332;SDS011;48624;49.812;8.562;2023-06-10T14:08:37;221.77;;;214.13;;
62332;SDS011;48624;49.812;8.562;2023-06-10T14:11:03;171.25;;;165.38;;
62332;SDS011;48624;49.812;8.562;2023-06-10T14:13:28;184.55;;;178.25;;
62332;SDS011;48624;49.812;8.562;2023-06-10T14:15:54;112.60;;;108.80;;
62332;SDS011;48624;49.812;8.562;2023-06-10T14:18:19;114.50;;;110.57;;
62332;SDS011;48624;49.812;8.562;2023-06-10T14:20:45;123.63;;;119.43;;
62332;SDS011;48624;49.812;8.562;2023-06-10T14:23:10;95.90;;;92.63;;
62332;SDS011;48624;49.812;8.562;2023-06-10T14:25:36;91.10;;;88.03;;
62332;SDS011;48624;49.812;8.562;2023-06-10T14:28:01;96.07;;;92.85;;
62332;SDS011;48624;49.812;8.562;2023-06-10T14:30:27;92.22;;;89.05;;
62332;SDS011;48624;49.812;8.562;2023-06-10T14:32:52;97.78;;;94.28;;
62332;SDS011;48624;49.812;8.562;2023-06-10T14:35:17;107.57;;;103.90;;
62332;SDS011;48624;49.812;8.562;2023-06-10T14:37:42;94.63;;;91.28;;